createdAt,value
2019-04-04T00:01:00.829Z,5.17
2019-04-04T00:03:29.098Z,5.50
2019-04-04T00:05:57.413Z,4.78
2019-04-04T00:08:25.695Z,5.37
2019-04-04T00:10:53.947Z,5.67
2019-04-04T00:13:22.198Z,5.95
2019-04-04T00:15:50.475Z,5.72
2019-04-04T00:18:18.723Z,5.90
2019-04-04T00:20:47.001Z,5.95
2019-04-04T00:23:15.265Z,6.50
2019-04-04T00:25:43.521Z,6.17
2019-04-04T00:28:14.618Z,6.17
2019-04-04T00:30:41.757Z,6.33
2019-04-04T00:33:09.983Z,6.10
2019-04-04T00:35:38.245Z,5.87
2019-04-04T00:38:06.955Z,6.15
2019-04-04T00:40:35.917Z,6.22
2019-04-04T00:43:04.137Z,6.33
2019-04-04T00:45:32.420Z,5.55
2019-04-04T00:48:01.096Z,6.92
2019-04-04T00:50:30.653Z,6.80
2019-04-04T00:52:58.885Z,7.35
2019-04-04T00:55:27.164Z,7.03
2019-04-04T00:57:55.398Z,7.15
2019-04-04T01:00:24.072Z,7.25
2019-04-04T01:02:52.884Z,8.15
2019-04-04T01:05:21.160Z,7.30
2019-04-04T01:07:49.386Z,7.20
2019-04-04T01:10:18.935Z,6.75
2019-04-04T01:12:47.783Z,7.12
2019-04-04T01:15:16.734Z,7.60
2019-04-04T01:17:44.964Z,7.50
2019-04-04T01:20:13.228Z,6.85
2019-04-04T01:22:41.469Z,7.15
2019-04-04T01:25:09.736Z,6.92
2019-04-04T01:27:37.958Z,6.87
2019-04-04T01:30:07.002Z,6.20
2019-04-04T01:32:35.367Z,6.90
2019-04-04T01:35:05.370Z,6.33
2019-04-04T01:37:33.604Z,6.72
2019-04-04T01:40:02.226Z,7.30
2019-04-04T01:42:30.987Z,7.62
2019-04-04T01:44:59.268Z,8.23
2019-04-04T01:47:27.503Z,7.97
2019-04-04T01:49:55.780Z,8.35
2019-04-04T01:52:24.007Z,8.45
2019-04-04T01:54:52.252Z,8.70
2019-04-04T01:57:20.519Z,9.15
2019-04-04T01:59:48.759Z,9.15
2019-04-04T02:02:18.484Z,9.13
2019-04-04T02:04:46.839Z,9.75
2019-04-04T02:07:15.113Z,9.85
2019-04-04T02:09:43.570Z,10.23
2019-04-04T02:12:11.905Z,9.28
2019-04-04T02:14:42.740Z,9.23
2019-04-04T02:17:10.144Z,9.35
2019-04-04T02:19:38.376Z,9.90
2019-04-04T02:22:06.648Z,9.40
2019-04-04T02:24:34.879Z,8.95
2019-04-04T02:27:04.923Z,8.78
2019-04-04T02:29:33.120Z,10.03
2019-04-04T02:32:03.052Z,10.70
2019-04-04T02:34:31.284Z,10.13
2019-04-04T02:36:59.561Z,10.35
2019-04-04T02:39:27.807Z,10.00
2019-04-04T02:41:56.109Z,11.95
2019-04-04T02:44:24.349Z,10.60
2019-04-04T02:46:52.637Z,11.08
2019-04-04T02:49:20.877Z,10.82
2019-04-04T02:51:49.137Z,10.95
2019-04-04T02:54:17.383Z,11.18
2019-04-04T02:56:45.651Z,11.08
2019-04-04T02:59:13.899Z,11.10
2019-04-04T03:01:42.168Z,10.05
2019-04-04T03:04:13.652Z,10.32
2019-04-04T03:06:40.417Z,10.90
2019-04-04T03:09:09.990Z,11.33
2019-04-04T03:11:38.701Z,11.68
2019-04-04T03:14:06.967Z,11.05
2019-04-04T03:16:35.205Z,10.05
2019-04-04T03:19:03.506Z,9.93
2019-04-04T03:21:31.741Z,8.80
2019-04-04T03:24:00.017Z,7.97
2019-04-04T03:26:28.243Z,7.37
2019-04-04T03:28:56.523Z,7.30
2019-04-04T03:31:24.889Z,7.62
2019-04-04T03:33:53.164Z,8.28
2019-04-04T03:36:21.432Z,9.53
2019-04-04T03:38:49.695Z,9.20
2019-04-04T03:41:17.948Z,9.85
2019-04-04T03:43:48.850Z,9.05
2019-04-04T03:46:16.175Z,8.98
2019-04-04T03:48:44.419Z,9.45
2019-04-04T03:51:12.725Z,10.35
2019-04-04T03:53:42.608Z,11.18
2019-04-04T03:56:10.858Z,10.95
2019-04-04T03:58:39.172Z,12.10
2019-04-04T04:01:12.045Z,13.35
2019-04-04T04:03:37.398Z,12.23
2019-04-04T04:06:08.753Z,12.37
2019-04-04T04:08:35.835Z,13.80
2019-04-04T04:11:05.783Z,12.47
2019-04-04T04:13:34.097Z,13.55
2019-04-04T04:16:03.713Z,12.68
2019-04-04T04:18:32.190Z,13.93
2019-04-04T04:21:00.428Z,12.37
2019-04-04T04:23:28.706Z,13.53
2019-04-04T04:25:56.956Z,13.58
2019-04-04T04:28:25.230Z,15.08
2019-04-04T04:30:53.484Z,13.58
2019-04-04T04:33:21.757Z,14.07
2019-04-04T04:35:50.009Z,14.15
2019-04-04T04:38:18.277Z,13.78
2019-04-04T04:40:47.365Z,14.43
2019-04-04T04:43:16.463Z,15.08
2019-04-04T04:45:45.239Z,13.65
2019-04-04T04:48:13.542Z,14.95
2019-04-04T04:50:41.777Z,14.40
2019-04-04T04:53:10.066Z,15.72
2019-04-04T04:55:38.295Z,15.40
2019-04-04T04:58:09.828Z,15.95
2019-04-04T05:00:36.573Z,14.75
2019-04-04T05:03:04.819Z,15.05
2019-04-04T05:05:33.233Z,14.28
2019-04-04T05:08:01.479Z,14.03
2019-04-04T05:10:32.948Z,15.25
2019-04-04T05:13:01.193Z,15.00
2019-04-04T05:15:30.436Z,14.75
2019-04-04T05:17:59.429Z,14.63
2019-04-04T05:20:29.859Z,15.43
2019-04-04T05:22:57.691Z,14.63
2019-04-04T05:25:25.935Z,15.63
2019-04-04T05:27:54.229Z,15.18
2019-04-04T05:30:22.473Z,15.93
2019-04-04T05:32:53.112Z,16.65
2019-04-04T05:35:20.790Z,16.55
2019-04-04T05:37:49.050Z,16.80
2019-04-04T05:40:17.287Z,16.32
2019-04-04T05:42:45.579Z,15.75
2019-04-04T05:45:14.276Z,14.23
2019-04-04T05:47:43.404Z,15.05
2019-04-04T05:50:12.089Z,14.47
2019-04-04T05:52:40.483Z,15.13
2019-04-04T05:55:10.819Z,14.53
2019-04-04T05:57:38.694Z,14.63
2019-04-04T06:00:07.999Z,14.15
2019-04-04T06:02:36.242Z,15.45
2019-04-04T06:05:06.165Z,16.05
2019-04-04T06:07:36.404Z,15.88
2019-04-04T06:10:06.164Z,15.50
2019-04-04T06:12:37.296Z,14.33
2019-04-04T06:15:05.744Z,12.75
2019-04-04T06:17:33.988Z,13.90
2019-04-04T06:20:02.338Z,14.78
2019-04-04T06:22:30.578Z,13.60
2019-04-04T06:24:59.341Z,13.88
2019-04-04T06:27:28.282Z,15.18
2019-04-04T06:29:56.555Z,14.65
2019-04-04T06:32:24.800Z,15.53
2019-04-04T06:34:53.034Z,14.55
2019-04-04T06:37:21.318Z,18.37
2019-04-04T06:39:49.556Z,19.65
2019-04-04T06:42:17.837Z,19.00
2019-04-04T06:44:46.077Z,17.87
2019-04-04T06:47:16.450Z,17.70
2019-04-04T06:49:45.816Z,17.05
2019-04-04T06:52:16.249Z,18.52
2019-04-04T06:54:44.273Z,21.73
2019-04-04T06:57:12.605Z,20.75
2019-04-04T06:59:42.989Z,19.77
2019-04-04T07:02:10.811Z,19.23
2019-04-04T07:04:39.083Z,21.07
2019-04-04T07:07:07.323Z,19.45
2019-04-04T07:09:37.241Z,19.70
2019-04-04T07:12:06.769Z,19.35
2019-04-04T07:14:45.441Z,20.62
2019-04-04T07:17:08.293Z,21.02
2019-04-04T07:19:35.452Z,22.17
2019-04-04T07:22:03.702Z,22.90
2019-04-04T07:24:31.939Z,24.15
2019-04-04T07:27:00.226Z,23.65
2019-04-04T07:29:28.464Z,23.77
2019-04-04T07:31:56.985Z,23.32
2019-04-04T07:34:25.237Z,25.15
2019-04-04T07:36:53.519Z,24.80
2019-04-04T07:39:21.753Z,24.95
2019-04-04T07:41:50.035Z,24.92
2019-04-04T07:44:18.276Z,24.75
2019-04-04T07:46:46.554Z,24.00
2019-04-04T07:49:14.871Z,26.02
2019-04-04T07:51:43.148Z,26.33
2019-04-04T07:54:11.404Z,26.35
2019-04-04T07:56:39.704Z,28.92
2019-04-04T07:59:07.951Z,27.65
2019-04-04T08:01:36.184Z,27.58
2019-04-04T08:04:06.633Z,27.87
2019-04-04T08:06:34.456Z,28.83
2019-04-04T08:09:04.388Z,29.60
2019-04-04T08:11:32.625Z,30.10
2019-04-04T08:14:01.274Z,32.50
2019-04-04T08:16:29.684Z,32.35
2019-04-04T08:18:58.040Z,34.33
2019-04-04T08:21:26.290Z,31.50
2019-04-04T08:23:54.530Z,31.60
2019-04-04T08:26:22.826Z,32.00
2019-04-04T08:28:51.087Z,32.35
2019-04-04T08:31:19.345Z,31.95
2019-04-04T08:33:47.596Z,31.87
2019-04-04T08:36:15.858Z,34.05
2019-04-04T08:38:44.089Z,33.78
2019-04-04T08:41:12.365Z,34.73
2019-04-04T08:43:40.610Z,31.30
2019-04-04T08:46:08.887Z,29.37
2019-04-04T08:48:37.133Z,28.70
2019-04-04T08:51:05.371Z,28.17
2019-04-04T08:53:39.787Z,29.52
2019-04-04T08:56:03.734Z,29.00
2019-04-04T08:58:32.017Z,31.45
2019-04-04T09:01:00.269Z,31.42
2019-04-04T09:03:28.537Z,30.88
2019-04-04T09:05:56.773Z,29.85
2019-04-04T09:08:25.041Z,30.05
2019-04-04T09:10:53.290Z,31.25
2019-04-04T09:13:21.565Z,29.87
2019-04-04T09:15:49.813Z,30.97
2019-04-04T09:18:18.095Z,31.25
2019-04-04T09:20:46.336Z,30.27
2019-04-04T09:23:14.610Z,28.40
2019-04-04T09:25:43.216Z,27.70
2019-04-04T09:28:11.510Z,26.70
2019-04-04T09:30:39.758Z,27.00
2019-04-04T09:33:08.006Z,27.22
2019-04-04T09:35:36.289Z,27.40
2019-04-04T09:38:04.515Z,27.07
2019-04-04T09:40:32.788Z,26.85
2019-04-04T09:43:01.027Z,28.45
2019-04-04T09:45:29.336Z,27.52
2019-04-04T09:47:57.618Z,28.20
2019-04-04T09:50:25.852Z,26.93
2019-04-04T09:52:54.134Z,26.97
2019-04-04T09:55:22.368Z,27.02
2019-04-04T09:57:50.644Z,27.55
2019-04-04T10:00:20.051Z,26.17
2019-04-04T10:02:48.323Z,26.52
2019-04-04T10:05:16.566Z,26.33
2019-04-04T10:07:44.840Z,26.45
2019-04-04T10:10:13.154Z,25.52
2019-04-04T10:12:41.425Z,24.45
2019-04-04T10:15:09.657Z,25.82
2019-04-04T10:17:37.939Z,24.32
2019-04-04T10:20:09.741Z,25.32
2019-04-04T10:22:38.017Z,22.70
2019-04-04T10:25:06.253Z,22.50
2019-04-04T10:27:34.497Z,23.07
2019-04-04T10:30:02.843Z,23.85
2019-04-04T10:32:31.100Z,23.73
2019-04-04T10:34:59.367Z,22.48
2019-04-04T10:37:27.607Z,22.90
2019-04-04T10:39:55.887Z,22.13
2019-04-04T10:42:24.117Z,22.80
2019-04-04T10:44:52.427Z,21.82
2019-04-04T10:47:20.668Z,22.50
2019-04-04T10:49:48.913Z,23.32
2019-04-04T10:52:17.181Z,22.30
2019-04-04T10:54:45.415Z,23.30
2019-04-04T10:57:13.681Z,22.77
2019-04-04T10:59:41.922Z,23.12
2019-04-04T11:02:10.194Z,22.67
2019-04-04T11:04:38.510Z,23.15
2019-04-04T11:07:06.818Z,22.82
2019-04-04T11:09:41.716Z,23.22
2019-04-04T11:12:05.025Z,24.30
2019-04-04T11:14:33.307Z,23.92
2019-04-04T11:17:01.547Z,25.62
2019-04-04T11:19:31.445Z,25.55
2019-04-04T11:21:59.868Z,25.88
2019-04-04T11:24:28.142Z,23.73
2019-04-04T11:26:56.384Z,25.62
2019-04-04T11:29:24.660Z,25.40
2019-04-04T11:31:52.900Z,23.83
2019-04-04T11:34:21.169Z,24.85
2019-04-04T11:36:49.478Z,25.88
2019-04-04T11:39:18.293Z,26.75
2019-04-04T11:41:46.585Z,28.47
2019-04-04T11:44:14.814Z,36.30
2019-04-04T11:46:43.080Z,51.45
2019-04-04T11:49:11.317Z,55.33
2019-04-04T11:51:39.578Z,53.38
2019-04-04T11:54:07.827Z,55.48
2019-04-04T11:56:36.100Z,50.52
2019-04-04T11:59:04.336Z,45.90
2019-04-04T12:01:37.048Z,44.30
2019-04-04T12:04:05.289Z,40.70
2019-04-04T12:06:33.574Z,45.73
2019-04-04T12:09:01.815Z,49.05
2019-04-04T12:11:30.053Z,45.38
2019-04-04T12:13:58.321Z,48.60
2019-04-04T12:16:26.569Z,47.30
2019-04-04T12:18:54.850Z,47.75
2019-04-04T12:21:23.085Z,50.80
2019-04-04T12:23:51.675Z,43.48
2019-04-04T12:26:20.086Z,38.02
2019-04-04T12:28:48.328Z,35.88
2019-04-04T12:31:16.596Z,36.25
2019-04-04T12:33:44.864Z,33.25
2019-04-04T12:36:24.079Z,33.15
2019-04-04T12:38:43.099Z,33.67
2019-04-04T12:41:11.387Z,30.75
2019-04-04T12:43:39.636Z,28.12
2019-04-04T12:46:07.916Z,27.27
2019-04-04T12:48:36.154Z,30.23
2019-04-04T12:51:04.437Z,29.75
2019-04-04T12:53:32.990Z,31.23
2019-04-04T12:56:01.644Z,31.17
2019-04-04T12:58:29.886Z,30.35
2019-04-04T13:00:58.134Z,30.95
2019-04-04T13:03:26.406Z,28.30
2019-04-04T13:05:54.640Z,27.58
2019-04-04T13:08:22.908Z,25.23
2019-04-04T13:10:51.150Z,25.37
2019-04-04T13:13:19.420Z,25.25
2019-04-04T13:15:47.659Z,26.02
2019-04-04T13:18:15.944Z,25.30
2019-04-04T13:20:44.179Z,22.75
2019-04-04T13:23:12.431Z,22.93
2019-04-04T13:25:40.720Z,25.70
2019-04-04T13:28:08.968Z,26.48
2019-04-04T13:30:37.240Z,26.62
2019-04-04T13:33:05.483Z,26.80
2019-04-04T13:35:33.756Z,26.97
2019-04-04T13:38:02.063Z,25.20
2019-04-04T13:40:30.351Z,26.00
2019-04-04T13:42:58.599Z,29.30
2019-04-04T13:45:26.873Z,28.92
2019-04-04T13:47:56.037Z,28.73
2019-04-04T13:50:24.349Z,27.07
2019-04-04T13:52:52.592Z,27.50
2019-04-04T13:55:20.841Z,29.27
2019-04-04T13:57:49.124Z,28.92
2019-04-04T14:00:17.374Z,28.90
2019-04-04T14:02:45.651Z,22.52
2019-04-04T14:05:14.485Z,28.50
2019-04-04T14:07:43.903Z,28.50
2019-04-04T14:10:12.475Z,22.93
2019-04-04T14:12:40.754Z,23.62
2019-04-04T14:15:09.757Z,32.13
2019-04-04T14:17:38.026Z,30.82
2019-04-04T14:20:10.860Z,31.90
2019-04-04T14:22:39.142Z,33.48
2019-04-04T14:25:08.058Z,33.13
2019-04-04T14:27:36.303Z,29.23
2019-04-04T14:30:05.914Z,30.20
2019-04-04T14:32:34.158Z,28.83
2019-04-04T14:35:02.419Z,27.37
2019-04-04T14:37:30.654Z,29.85
2019-04-04T14:39:58.918Z,30.15
2019-04-04T14:42:27.164Z,30.37
2019-04-04T14:44:55.460Z,32.10
2019-04-04T14:47:23.702Z,32.78
2019-04-04T14:49:51.960Z,32.00
2019-04-04T14:52:20.686Z,32.78
2019-04-04T14:54:49.021Z,36.03
2019-04-04T14:57:17.286Z,34.30
2019-04-04T14:59:45.528Z,31.10
2019-04-04T15:02:13.802Z,32.45
2019-04-04T15:04:42.052Z,32.55
2019-04-04T15:07:10.327Z,32.17
2019-04-04T15:09:38.565Z,33.30
2019-04-04T15:12:06.856Z,31.42
2019-04-04T15:14:35.090Z,32.98
2019-04-04T15:17:03.476Z,31.62
2019-04-04T15:19:31.714Z,31.80
2019-04-04T15:21:59.987Z,31.33
2019-04-04T15:24:28.225Z,31.90
2019-04-04T15:26:56.494Z,31.97
2019-04-04T15:29:24.771Z,31.55
2019-04-04T15:31:52.995Z,32.73
2019-04-04T15:34:21.272Z,31.70
2019-04-04T15:36:49.501Z,31.05
2019-04-04T15:39:17.777Z,31.77
2019-04-04T15:41:46.032Z,31.45
2019-04-04T15:44:14.304Z,34.13
2019-04-04T15:46:42.547Z,33.53
2019-04-04T15:49:10.848Z,32.75
2019-04-04T15:51:39.088Z,33.42
2019-04-04T15:54:07.360Z,33.95
2019-04-04T15:56:35.610Z,35.58
2019-04-04T15:59:03.881Z,34.40
2019-04-04T16:01:32.126Z,35.33
2019-04-04T16:04:00.404Z,35.13
2019-04-04T16:06:28.654Z,37.20
2019-04-04T16:08:56.933Z,36.77
2019-04-04T16:11:25.172Z,37.75
2019-04-04T16:13:53.522Z,36.68
2019-04-04T16:16:21.769Z,36.30
2019-04-04T16:18:50.039Z,37.95
2019-04-04T16:21:18.320Z,37.48
2019-04-04T16:23:46.541Z,38.28
2019-04-04T16:26:14.782Z,36.28
2019-04-04T16:28:43.062Z,37.13
2019-04-04T16:31:11.332Z,36.25
2019-04-04T16:33:39.668Z,38.78
2019-04-04T16:36:08.092Z,39.70
2019-04-04T16:38:36.376Z,39.67
2019-04-04T16:41:04.621Z,39.78
2019-04-04T16:43:33.102Z,40.15
2019-04-04T16:46:01.349Z,41.00
2019-04-04T16:48:29.628Z,39.75
2019-04-04T16:50:57.867Z,41.20
2019-04-04T16:53:26.146Z,44.30
2019-04-04T16:55:54.383Z,40.73
2019-04-04T16:58:22.658Z,44.90
2019-04-04T17:00:50.895Z,40.80
2019-04-04T17:03:19.185Z,43.65
2019-04-04T17:05:47.415Z,43.08
2019-04-04T17:08:15.675Z,44.50
2019-04-04T17:10:44.301Z,43.38
2019-04-04T17:13:12.545Z,43.87
2019-04-04T17:15:40.837Z,47.03
2019-04-04T17:18:09.072Z,46.02
2019-04-04T17:20:37.349Z,49.25
2019-04-04T17:23:05.605Z,49.75
2019-04-04T17:25:33.887Z,48.28
2019-04-04T17:28:02.335Z,49.40
2019-04-04T17:30:31.355Z,47.15
2019-04-04T17:32:59.988Z,47.85
2019-04-04T17:35:28.340Z,48.10
2019-04-04T17:37:56.625Z,43.75
2019-04-04T17:40:24.947Z,47.85
2019-04-04T17:42:53.298Z,45.40
2019-04-04T17:45:21.836Z,46.20
2019-04-04T17:47:50.112Z,41.83
2019-04-04T17:50:19.429Z,42.20
2019-04-04T17:52:48.263Z,42.23
2019-04-04T17:55:16.543Z,38.88
2019-04-04T17:57:44.803Z,40.52
2019-04-04T18:00:13.211Z,40.63
2019-04-04T18:02:41.466Z,40.28
2019-04-04T18:05:10.210Z,41.20
2019-04-04T18:07:38.450Z,39.63
2019-04-04T18:10:06.826Z,40.03
2019-04-04T18:12:40.532Z,41.92
2019-04-04T18:15:08.026Z,40.23
2019-04-04T18:17:36.269Z,39.92
2019-04-04T18:20:06.564Z,38.45
2019-04-04T18:22:34.801Z,38.73
2019-04-04T18:25:03.081Z,40.85
2019-04-04T18:27:31.310Z,38.55
2019-04-04T18:29:59.589Z,39.45
2019-04-04T18:32:27.829Z,40.43
2019-04-04T18:34:56.103Z,39.85
2019-04-04T18:37:24.364Z,40.98
2019-04-04T18:39:52.635Z,40.90
2019-04-04T18:42:20.883Z,39.55
2019-04-04T18:44:49.116Z,41.08
2019-04-04T18:47:17.399Z,41.18
2019-04-04T18:49:45.645Z,41.77
2019-04-04T18:52:13.943Z,42.35
2019-04-04T18:54:42.198Z,43.52
2019-04-04T18:57:13.070Z,43.50
2019-04-04T18:59:40.511Z,43.68
2019-04-04T19:02:08.784Z,43.15
2019-04-04T19:04:37.033Z,43.15
2019-04-04T19:07:05.325Z,45.33
2019-04-04T19:09:33.639Z,46.37
2019-04-04T19:12:01.924Z,47.38
2019-04-04T19:14:30.160Z,45.83
2019-04-04T19:16:58.444Z,44.93
2019-04-04T19:19:26.697Z,44.20
2019-04-04T19:21:54.970Z,45.20
2019-04-04T19:24:23.216Z,44.27
2019-04-04T19:26:51.498Z,47.48
2019-04-04T19:29:19.734Z,45.83
2019-04-04T19:31:48.018Z,46.40
2019-04-04T19:34:16.270Z,45.15
2019-04-04T19:36:44.572Z,49.60
2019-04-04T19:39:17.252Z,45.20
2019-04-04T19:41:45.493Z,43.63
2019-04-04T19:44:13.857Z,47.23
2019-04-04T19:46:42.093Z,48.10
2019-04-04T19:49:10.355Z,47.93
2019-04-04T19:51:38.622Z,47.80
2019-04-04T19:54:06.891Z,47.55
2019-04-04T19:56:35.132Z,47.93
2019-04-04T19:59:03.422Z,49.73
2019-04-04T20:01:31.664Z,49.42
2019-04-04T20:03:59.992Z,50.12
2019-04-04T20:06:28.230Z,51.53
2019-04-04T20:08:56.510Z,50.65
2019-04-04T20:11:24.761Z,50.90
2019-04-04T20:13:53.018Z,51.55
2019-04-04T20:16:21.302Z,50.17
2019-04-04T20:18:49.542Z,50.12
2019-04-04T20:21:17.831Z,51.40
2019-04-04T20:23:46.136Z,54.30
2019-04-04T20:26:14.433Z,50.12
2019-04-04T20:28:42.627Z,49.90
2019-04-04T20:31:10.890Z,49.83
2019-04-04T20:33:39.129Z,51.88
2019-04-04T20:36:07.417Z,51.95
2019-04-04T20:38:35.705Z,52.20
2019-04-04T20:41:04.047Z,51.13
2019-04-04T20:43:42.777Z,50.50
2019-04-04T20:46:02.833Z,52.23
2019-04-04T20:48:31.089Z,50.23
2019-04-04T20:50:59.365Z,47.50
2019-04-04T20:53:27.625Z,51.40
2019-04-04T20:55:55.940Z,51.63
2019-04-04T20:58:24.167Z,51.33
2019-04-04T21:00:52.429Z,52.43
2019-04-04T21:03:20.695Z,51.20
2019-04-04T21:05:48.938Z,52.98
2019-04-04T21:08:17.218Z,53.13
2019-04-04T21:10:45.468Z,52.48
2019-04-04T21:13:13.748Z,53.83
2019-04-04T21:15:41.996Z,54.77
2019-04-04T21:18:10.276Z,55.73
2019-04-04T21:20:38.516Z,56.77
2019-04-04T21:23:06.790Z,57.05
2019-04-04T21:25:35.034Z,57.55
2019-04-04T21:28:03.334Z,56.50
2019-04-04T21:30:31.587Z,58.70
2019-04-04T21:32:59.858Z,58.02
2019-04-04T21:35:28.102Z,57.45
2019-04-04T21:37:56.384Z,55.88
2019-04-04T21:40:24.626Z,60.65
2019-04-04T21:42:52.926Z,57.48
2019-04-04T21:45:21.173Z,60.28
2019-04-04T21:47:49.449Z,61.77
2019-04-04T21:50:17.693Z,62.13
2019-04-04T21:52:45.988Z,64.58
2019-04-04T21:55:14.242Z,62.43
2019-04-04T21:57:42.481Z,63.42
2019-04-04T22:00:10.789Z,62.13
2019-04-04T22:02:39.060Z,69.10
2019-04-04T22:05:08.304Z,66.33
2019-04-04T22:07:36.587Z,71.85
2019-04-04T22:10:07.024Z,63.73
2019-04-04T22:12:35.292Z,68.47
2019-04-04T22:15:04.936Z,65.12
2019-04-04T22:17:33.201Z,73.05
2019-04-04T22:20:01.518Z,71.62
2019-04-04T22:22:29.796Z,70.95
2019-04-04T22:24:58.070Z,73.37
2019-04-04T22:27:26.374Z,76.80
2019-04-04T22:29:54.641Z,76.55
2019-04-04T22:32:22.942Z,75.60
2019-04-04T22:34:51.219Z,77.50
2019-04-04T22:37:19.532Z,76.02
2019-04-04T22:39:47.805Z,79.97
2019-04-04T22:42:16.239Z,76.10
2019-04-04T22:44:44.507Z,76.53
2019-04-04T22:47:12.819Z,78.45
2019-04-04T22:49:41.087Z,76.12
2019-04-04T22:52:09.405Z,82.02
2019-04-04T22:54:37.678Z,78.00
2019-04-04T22:57:06.004Z,76.42
2019-04-04T22:59:34.264Z,72.67
2019-04-04T23:02:02.545Z,75.83
2019-04-04T23:04:30.853Z,69.50
2019-04-04T23:06:59.119Z,74.25
2019-04-04T23:09:27.419Z,69.07
2019-04-04T23:11:55.695Z,73.83
2019-04-04T23:14:24.002Z,74.70
2019-04-04T23:16:52.273Z,72.25
2019-04-04T23:19:20.560Z,72.80
2019-04-04T23:21:48.838Z,73.45
2019-04-04T23:24:17.144Z,70.20
2019-04-04T23:26:45.415Z,72.75
2019-04-04T23:29:13.699Z,73.65
2019-04-04T23:31:42.030Z,70.72
2019-04-04T23:34:10.313Z,72.85
2019-04-04T23:36:38.610Z,72.17
2019-04-04T23:39:07.354Z,69.72
2019-04-04T23:41:35.665Z,68.05
2019-04-04T23:44:03.939Z,70.08
2019-04-04T23:46:32.253Z,60.95
2019-04-04T23:49:00.556Z,67.60
2019-04-04T23:51:28.837Z,66.72
2019-04-04T23:53:57.347Z,70.45
2019-04-04T23:56:25.618Z,65.83
2019-04-04T23:58:53.925Z,66.00
